sensor_id;sensor_type;location;lat;lon;timestamp;P1;durP1;ratioP1;P2;durP2;ratioP2
71174;SDS011;58876;51.994;4.472;2022-08-01T00:00:58;23008.55;;;13883.91;;
71174;SDS011;58876;51.994;4.472;2022-08-01T00:03:23;23531.16;;;14107.62;;
71174;SDS011;58876;51.994;4.472;2022-08-01T00:05:49;23456.37;;;14073.54;;
71174;SDS011;58876;51.994;4.472;2022-08-01T00:08:14;23425.51;;;14064.29;;
71174;SDS011;58876;51.994;4.472;2022-08-01T00:10:39;23123.53;;;13919.04;;
71174;SDS011;58876;51.994;4.472;2022-08-01T00:13:05;22495.67;;;13631.80;;
71174;SDS011;58876;51.994;4.472;2022-08-01T00:15:30;22374.59;;;13591.30;;
71174;SDS011;58876;51.994;4.472;2022-08-01T00:17:57;22437.21;;;13533.76;;
71174;SDS011;58876;51.994;4.472;2022-08-01T00:20:23;21781.85;;;13222.43;;
71174;SDS011;58876;51.994;4.472;2022-08-01T00:22:48;22490.86;;;13530.25;;
71174;SDS011;58876;51.994;4.472;2022-08-01T00:25:14;22341.72;;;13491.18;;
71174;SDS011;58876;51.994;4.472;2022-08-01T00:27:39;22655.48;;;13622.48;;
71174;SDS011;58876;51.994;4.472;2022-08-01T00:30:05;22449.21;;;13530.82;;
71174;SDS011;58876;51.994;4.472;2022-08-01T00:32:31;22825.91;;;13693.74;;
71174;SDS011;58876;51.994;4.472;2022-08-01T00:38:18;22137.00;;;13378.57;;
71174;SDS011;58876;51.994;4.472;2022-08-01T00:40:44;22907.44;;;13756.65;;
71174;SDS011;58876;51.994;4.472;2022-08-01T00:43:09;22554.65;;;13637.68;;
71174;SDS011;58876;51.994;4.472;2022-08-01T00:45:35;22561.14;;;13652.23;;
71174;SDS011;58876;51.994;4.472;2022-08-01T00:48:00;22583.79;;;13658.48;;
71174;SDS011;58876;51.994;4.472;2022-08-01T00:50:26;22651.77;;;13711.97;;
71174;SDS011;58876;51.994;4.472;2022-08-01T00:52:52;23353.13;;;14015.82;;
71174;SDS011;58876;51.994;4.472;2022-08-01T00:55:20;22568.68;;;13697.81;;
71174;SDS011;58876;51.994;4.472;2022-08-01T00:57:46;22492.56;;;13578.38;;
71174;SDS011;58876;51.994;4.472;2022-08-01T01:00:13;22452.56;;;13538.74;;
71174;SDS011;58876;51.994;4.472;2022-08-01T01:02:39;22678.89;;;13686.55;;
71174;SDS011;58876;51.994;4.472;2022-08-01T01:05:05;22032.39;;;13345.37;;
71174;SDS011;58876;51.994;4.472;2022-08-01T01:07:35;23168.42;;;13809.49;;
71174;SDS011;58876;51.994;4.472;2022-08-01T01:10:38;21189.02;;;12857.03;;
71174;SDS011;58876;51.994;4.472;2022-08-01T01:13:22;22357.35;;;13382.57;;
71174;SDS011;58876;51.994;4.472;2022-08-01T01:15:58;22113.29;;;13245.42;;
71174;SDS011;58876;51.994;4.472;2022-08-01T01:21:00;22589.71;;;13532.97;;
71174;SDS011;58876;51.994;4.472;2022-08-01T01:26:45;22912.37;;;13617.15;;
71174;SDS011;58876;51.994;4.472;2022-08-01T01:29:42;22382.12;;;13428.90;;
71174;SDS011;58876;51.994;4.472;2022-08-01T01:32:14;23030.67;;;13750.80;;
71174;SDS011;58876;51.994;4.472;2022-08-01T01:34:45;22295.25;;;13425.77;;
71174;SDS011;58876;51.994;4.472;2022-08-01T01:37:16;22407.89;;;13472.71;;
71174;SDS011;58876;51.994;4.472;2022-08-01T01:39:46;23311.56;;;13901.25;;
71174;SDS011;58876;51.994;4.472;2022-08-01T01:42:16;22624.97;;;13549.12;;
71174;SDS011;58876;51.994;4.472;2022-08-01T01:44:43;22452.16;;;13496.09;;
71174;SDS011;58876;51.994;4.472;2022-08-01T01:47:11;23045.04;;;13775.45;;
71174;SDS011;58876;51.994;4.472;2022-08-01T01:49:39;23935.33;;;14185.37;;
71174;SDS011;58876;51.994;4.472;2022-08-01T01:52:08;22093.01;;;13342.85;;
71174;SDS011;58876;51.994;4.472;2022-08-01T01:54:40;22160.79;;;13343.63;;
71174;SDS011;58876;51.994;4.472;2022-08-01T01:57:12;22811.71;;;13648.08;;
71174;SDS011;58876;51.994;4.472;2022-08-01T01:59:43;22681.30;;;13564.77;;
71174;SDS011;58876;51.994;4.472;2022-08-01T02:02:10;22333.14;;;13388.50;;
71174;SDS011;58876;51.994;4.472;2022-08-01T02:04:43;22838.38;;;13593.02;;
71174;SDS011;58876;51.994;4.472;2022-08-01T02:07:12;21835.72;;;13141.24;;
71174;SDS011;58876;51.994;4.472;2022-08-01T02:09:42;22461.19;;;13473.70;;
71174;SDS011;58876;51.994;4.472;2022-08-01T02:12:10;21962.12;;;13229.63;;
71174;SDS011;58876;51.994;4.472;2022-08-01T02:14:38;22492.10;;;13461.52;;
71174;SDS011;58876;51.994;4.472;2022-08-01T02:17:06;22610.46;;;13512.12;;
71174;SDS011;58876;51.994;4.472;2022-08-01T02:19:34;21718.61;;;13103.78;;
71174;SDS011;58876;51.994;4.472;2022-08-01T02:22:00;21737.24;;;13120.17;;
71174;SDS011;58876;51.994;4.472;2022-08-01T02:30:20;22454.15;;;13487.73;;
71174;SDS011;58876;51.994;4.472;2022-08-01T02:33:02;22519.36;;;13597.45;;
71174;SDS011;58876;51.994;4.472;2022-08-01T02:35:32;22363.95;;;13521.32;;
71174;SDS011;58876;51.994;4.472;2022-08-01T02:38:03;21369.83;;;13032.82;;
71174;SDS011;58876;51.994;4.472;2022-08-01T02:40:32;21932.18;;;13262.40;;
71174;SDS011;58876;51.994;4.472;2022-08-01T02:43:02;22025.74;;;13375.45;;
71174;SDS011;58876;51.994;4.472;2022-08-01T02:45:30;22823.11;;;13738.27;;
71174;SDS011;58876;51.994;4.472;2022-08-01T02:48:01;22574.22;;;13625.10;;
71174;SDS011;58876;51.994;4.472;2022-08-01T02:50:34;22765.50;;;13718.48;;
71174;SDS011;58876;51.994;4.472;2022-08-01T02:53:02;22400.83;;;13520.29;;
71174;SDS011;58876;51.994;4.472;2022-08-01T02:55:32;21836.31;;;13246.82;;
71174;SDS011;58876;51.994;4.472;2022-08-01T02:57:59;22242.08;;;13449.20;;
71174;SDS011;58876;51.994;4.472;2022-08-01T03:00:27;22437.70;;;13555.13;;
71174;SDS011;58876;51.994;4.472;2022-08-01T03:02:55;21510.91;;;13096.49;;
71174;SDS011;58876;51.994;4.472;2022-08-01T03:05:24;21448.78;;;13023.99;;
71174;SDS011;58876;51.994;4.472;2022-08-01T03:07:51;21043.02;;;12791.32;;
71174;SDS011;58876;51.994;4.472;2022-08-01T03:10:20;21713.09;;;13076.90;;
71174;SDS011;58876;51.994;4.472;2022-08-01T03:12:48;21792.74;;;13152.17;;
71174;SDS011;58876;51.994;4.472;2022-08-01T03:15:15;21824.89;;;13196.43;;
71174;SDS011;58876;51.994;4.472;2022-08-01T03:17:43;22111.53;;;13302.90;;
71174;SDS011;58876;51.994;4.472;2022-08-01T03:20:13;21840.16;;;13190.68;;
71174;SDS011;58876;51.994;4.472;2022-08-01T03:22:42;21640.69;;;13026.71;;
71174;SDS011;58876;51.994;4.472;2022-08-01T03:25:10;22209.12;;;13279.03;;
71174;SDS011;58876;51.994;4.472;2022-08-01T03:27:40;22013.37;;;13192.33;;
71174;SDS011;58876;51.994;4.472;2022-08-01T03:30:08;22627.46;;;13498.83;;
71174;SDS011;58876;51.994;4.472;2022-08-01T03:32:35;21505.92;;;12988.84;;
71174;SDS011;58876;51.994;4.472;2022-08-01T03:35:01;22133.25;;;13263.15;;
71174;SDS011;58876;51.994;4.472;2022-08-01T03:37:28;22527.74;;;13432.70;;
71174;SDS011;58876;51.994;4.472;2022-08-01T03:40:06;22484.72;;;13492.86;;
71174;SDS011;58876;51.994;4.472;2022-08-01T03:42:37;21466.61;;;13050.41;;
71174;SDS011;58876;51.994;4.472;2022-08-01T03:45:25;22204.24;;;13374.70;;
71174;SDS011;58876;51.994;4.472;2022-08-01T03:47:57;21793.98;;;13207.34;;
71174;SDS011;58876;51.994;4.472;2022-08-01T03:50:26;22322.94;;;13451.22;;
71174;SDS011;58876;51.994;4.472;2022-08-01T03:52:53;21869.92;;;13210.47;;
71174;SDS011;58876;51.994;4.472;2022-08-01T03:55:24;21568.37;;;13075.65;;
71174;SDS011;58876;51.994;4.472;2022-08-01T03:57:51;21885.21;;;13223.28;;
71174;SDS011;58876;51.994;4.472;2022-08-01T04:00:17;21290.46;;;12922.87;;
71174;SDS011;58876;51.994;4.472;2022-08-01T04:02:46;20723.23;;;12651.91;;
71174;SDS011;58876;51.994;4.472;2022-08-01T04:05:13;21475.94;;;12977.99;;
71174;SDS011;58876;51.994;4.472;2022-08-01T04:07:40;21007.03;;;12807.32;;
71174;SDS011;58876;51.994;4.472;2022-08-01T04:10:10;21859.61;;;13247.26;;
71174;SDS011;58876;51.994;4.472;2022-08-01T04:12:36;21841.95;;;13246.09;;
71174;SDS011;58876;51.994;4.472;2022-08-01T04:18:19;21153.42;;;12847.44;;
71174;SDS011;58876;51.994;4.472;2022-08-01T04:20:48;22017.83;;;13239.48;;
71174;SDS011;58876;51.994;4.472;2022-08-01T04:23:15;20649.69;;;12622.86;;
71174;SDS011;58876;51.994;4.472;2022-08-01T04:25:45;21600.38;;;13043.27;;
71174;SDS011;58876;51.994;4.472;2022-08-01T04:28:15;21778.21;;;13103.87;;
71174;SDS011;58876;51.994;4.472;2022-08-01T04:30:43;21711.97;;;13069.41;;
71174;SDS011;58876;51.994;4.472;2022-08-01T04:33:13;21345.37;;;12919.75;;
71174;SDS011;58876;51.994;4.472;2022-08-01T04:38:26;21294.28;;;12920.20;;
71174;SDS011;58876;51.994;4.472;2022-08-01T04:40:55;20854.20;;;12734.85;;
71174;SDS011;58876;51.994;4.472;2022-08-01T04:43:22;20798.50;;;12724.28;;
71174;SDS011;58876;51.994;4.472;2022-08-01T04:45:48;21097.27;;;12889.22;;
71174;SDS011;58876;51.994;4.472;2022-08-01T04:48:16;21391.63;;;13012.33;;
71174;SDS011;58876;51.994;4.472;2022-08-01T04:50:46;20893.38;;;12781.98;;
71174;SDS011;58876;51.994;4.472;2022-08-01T04:53:12;20424.00;;;12533.07;;
71174;SDS011;58876;51.994;4.472;2022-08-01T04:58:27;20195.08;;;12380.10;;
71174;SDS011;58876;51.994;4.472;2022-08-01T05:00:53;20798.40;;;12643.98;;
71174;SDS011;58876;51.994;4.472;2022-08-01T05:03:18;21673.29;;;13074.87;;
71174;SDS011;58876;51.994;4.472;2022-08-01T05:09:05;21281.61;;;12954.39;;
71174;SDS011;58876;51.994;4.472;2022-08-01T05:11:31;21417.33;;;13023.69;;
71174;SDS011;58876;51.994;4.472;2022-08-01T05:16:46;20555.99;;;12633.40;;
71174;SDS011;58876;51.994;4.472;2022-08-01T05:19:11;20873.92;;;12808.69;;
71174;SDS011;58876;51.994;4.472;2022-08-01T05:21:37;19886.43;;;12405.74;;
71174;SDS011;58876;51.994;4.472;2022-08-01T05:24:10;20990.47;;;12861.26;;
71174;SDS011;58876;51.994;4.472;2022-08-01T05:26:35;20938.78;;;12734.30;;
71174;SDS011;58876;51.994;4.472;2022-08-01T05:29:02;21220.86;;;12940.99;;
71174;SDS011;58876;51.994;4.472;2022-08-01T05:31:28;21034.80;;;12890.63;;
71174;SDS011;58876;51.994;4.472;2022-08-01T05:33:57;20798.90;;;12745.15;;
71174;SDS011;58876;51.994;4.472;2022-08-01T05:36:23;20220.70;;;12533.58;;
71174;SDS011;58876;51.994;4.472;2022-08-01T05:38:48;20704.52;;;12758.76;;
71174;SDS011;58876;51.994;4.472;2022-08-01T05:41:13;21010.76;;;12872.09;;
71174;SDS011;58876;51.994;4.472;2022-08-01T05:46:31;21351.39;;;13027.99;;
71174;SDS011;58876;51.994;4.472;2022-08-01T05:48:57;20543.77;;;12699.05;;
71174;SDS011;58876;51.994;4.472;2022-08-01T05:51:23;20634.89;;;12672.16;;
71174;SDS011;58876;51.994;4.472;2022-08-01T05:53:51;21161.71;;;12905.11;;
71174;SDS011;58876;51.994;4.472;2022-08-01T05:56:17;21516.40;;;13092.42;;
71174;SDS011;58876;51.994;4.472;2022-08-01T05:58:42;21266.12;;;13001.91;;
71174;SDS011;58876;51.994;4.472;2022-08-01T06:01:08;22037.70;;;13276.22;;
71174;SDS011;58876;51.994;4.472;2022-08-01T06:03:34;21815.25;;;13187.84;;
71174;SDS011;58876;51.994;4.472;2022-08-01T06:06:00;21417.11;;;12998.15;;
71174;SDS011;58876;51.994;4.472;2022-08-01T06:08:26;21607.43;;;13095.83;;
71174;SDS011;58876;51.994;4.472;2022-08-01T06:10:52;21743.99;;;13106.38;;
71174;SDS011;58876;51.994;4.472;2022-08-01T06:13:17;22492.13;;;13445.04;;
71174;SDS011;58876;51.994;4.472;2022-08-01T06:15:45;22916.31;;;13657.66;;
71174;SDS011;58876;51.994;4.472;2022-08-01T06:18:11;21752.89;;;13140.83;;
71174;SDS011;58876;51.994;4.472;2022-08-01T06:20:36;22260.18;;;13388.58;;
71174;SDS011;58876;51.994;4.472;2022-08-01T06:23:02;21540.54;;;13037.57;;
71174;SDS011;58876;51.994;4.472;2022-08-01T06:25:28;21280.12;;;12921.85;;
71174;SDS011;58876;51.994;4.472;2022-08-01T06:27:53;21259.62;;;12925.14;;
71174;SDS011;58876;51.994;4.472;2022-08-01T06:30:19;20552.63;;;12608.01;;
71174;SDS011;58876;51.994;4.472;2022-08-01T06:32:45;20644.07;;;12611.89;;
71174;SDS011;58876;51.994;4.472;2022-08-01T06:35:10;20459.21;;;12494.00;;
71174;SDS011;58876;51.994;4.472;2022-08-01T06:37:36;19948.56;;;12285.35;;
71174;SDS011;58876;51.994;4.472;2022-08-01T06:40:06;20123.64;;;12336.26;;
71174;SDS011;58876;51.994;4.472;2022-08-01T06:42:33;21268.41;;;12878.60;;
71174;SDS011;58876;51.994;4.472;2022-08-01T06:47:32;21928.88;;;13147.13;;
71174;SDS011;58876;51.994;4.472;2022-08-01T06:49:57;21414.04;;;12921.92;;
71174;SDS011;58876;51.994;4.472;2022-08-01T06:52:23;20783.77;;;12668.04;;
71174;SDS011;58876;51.994;4.472;2022-08-01T06:54:49;21270.97;;;12975.79;;
71174;SDS011;58876;51.994;4.472;2022-08-01T06:57:14;22029.47;;;13339.99;;
71174;SDS011;58876;51.994;4.472;2022-08-01T06:59:40;22489.81;;;13522.17;;
71174;SDS011;58876;51.994;4.472;2022-08-01T07:02:05;22354.46;;;13426.05;;
71174;SDS011;58876;51.994;4.472;2022-08-01T07:04:32;21725.58;;;13182.83;;
71174;SDS011;58876;51.994;4.472;2022-08-01T07:06:58;21518.39;;;13128.65;;
71174;SDS011;58876;51.994;4.472;2022-08-01T07:09:24;21403.22;;;13103.25;;
71174;SDS011;58876;51.994;4.472;2022-08-01T07:11:50;21831.10;;;13204.32;;
71174;SDS011;58876;51.994;4.472;2022-08-01T07:14:18;22044.41;;;13304.39;;
71174;SDS011;58876;51.994;4.472;2022-08-01T07:16:44;20934.39;;;12835.52;;
71174;SDS011;58876;51.994;4.472;2022-08-01T07:19:09;21317.89;;;12979.79;;
71174;SDS011;58876;51.994;4.472;2022-08-01T07:21:36;20716.43;;;12750.74;;
71174;SDS011;58876;51.994;4.472;2022-08-01T07:24:02;21896.82;;;13261.08;;
71174;SDS011;58876;51.994;4.472;2022-08-01T07:26:27;21071.42;;;12862.72;;
71174;SDS011;58876;51.994;4.472;2022-08-01T07:28:53;21032.89;;;12891.86;;
71174;SDS011;58876;51.994;4.472;2022-08-01T07:31:19;21322.36;;;13067.14;;
71174;SDS011;58876;51.994;4.472;2022-08-01T07:33:44;21757.94;;;13245.76;;
71174;SDS011;58876;51.994;4.472;2022-08-01T07:36:10;21222.55;;;13020.62;;
71174;SDS011;58876;51.994;4.472;2022-08-01T07:38:36;20807.21;;;12866.05;;
71174;SDS011;58876;51.994;4.472;2022-08-01T07:41:01;21700.63;;;13278.01;;
71174;SDS011;58876;51.994;4.472;2022-08-01T07:43:27;21028.18;;;13064.85;;
71174;SDS011;58876;51.994;4.472;2022-08-01T07:45:53;21090.36;;;13013.08;;
71174;SDS011;58876;51.994;4.472;2022-08-01T07:48:19;21103.68;;;13010.74;;
71174;SDS011;58876;51.994;4.472;2022-08-01T07:50:49;20866.10;;;12898.91;;
71174;SDS011;58876;51.994;4.472;2022-08-01T07:53:15;20855.92;;;12904.25;;
71174;SDS011;58876;51.994;4.472;2022-08-01T07:55:41;20706.22;;;12842.16;;
71174;SDS011;58876;51.994;4.472;2022-08-01T07:58:07;20407.58;;;12757.11;;
71174;SDS011;58876;51.994;4.472;2022-08-01T08:00:33;21192.54;;;13055.98;;
71174;SDS011;58876;51.994;4.472;2022-08-01T08:02:58;20907.51;;;12868.65;;
71174;SDS011;58876;51.994;4.472;2022-08-01T08:05:25;19974.75;;;12327.82;;
71174;SDS011;58876;51.994;4.472;2022-08-01T08:07:52;18921.70;;;11807.85;;
71174;SDS011;58876;51.994;4.472;2022-08-01T08:10:17;17720.16;;;11255.25;;
71174;SDS011;58876;51.994;4.472;2022-08-01T08:12:43;15439.10;;;10438.13;;
71174;SDS011;58876;51.994;4.472;2022-08-01T08:15:10;14422.47;;;9633.28;;
71174;SDS011;58876;51.994;4.472;2022-08-01T08:17:35;15797.15;;;10275.74;;
71174;SDS011;58876;51.994;4.472;2022-08-01T08:20:02;17966.07;;;11445.27;;
71174;SDS011;58876;51.994;4.472;2022-08-01T08:22:28;19231.44;;;11928.70;;
71174;SDS011;58876;51.994;4.472;2022-08-01T08:24:54;18884.04;;;11830.38;;
71174;SDS011;58876;51.994;4.472;2022-08-01T08:27:19;20058.85;;;12413.85;;
71174;SDS011;58876;51.994;4.472;2022-08-01T08:29:45;19257.66;;;12052.46;;
71174;SDS011;58876;51.994;4.472;2022-08-01T08:32:11;20411.66;;;12658.58;;
71174;SDS011;58876;51.994;4.472;2022-08-01T08:34:36;20748.02;;;12836.64;;
71174;SDS011;58876;51.994;4.472;2022-08-01T08:37:02;20046.97;;;12513.18;;
71174;SDS011;58876;51.994;4.472;2022-08-01T08:39:27;20125.04;;;12490.37;;
71174;SDS011;58876;51.994;4.472;2022-08-01T08:41:55;18943.64;;;11849.56;;
71174;SDS011;58876;51.994;4.472;2022-08-01T08:46:53;17551.96;;;11194.45;;
71174;SDS011;58876;51.994;4.472;2022-08-01T08:49:24;15343.85;;;10305.67;;
71174;SDS011;58876;51.994;4.472;2022-08-01T08:51:52;14154.17;;;9551.65;;
71174;SDS011;58876;51.994;4.472;2022-08-01T08:54:22;14161.94;;;9473.69;;
71174;SDS011;58876;51.994;4.472;2022-08-01T08:56:50;14020.63;;;9437.63;;
71174;SDS011;58876;51.994;4.472;2022-08-01T08:59:18;14800.51;;;9733.11;;
71174;SDS011;58876;51.994;4.472;2022-08-01T09:01:44;14749.89;;;9704.75;;
71174;SDS011;58876;51.994;4.472;2022-08-01T09:04:10;15045.67;;;9858.66;;
71174;SDS011;58876;51.994;4.472;2022-08-01T09:06:37;15965.29;;;10303.38;;
71174;SDS011;58876;51.994;4.472;2022-08-01T09:09:03;16891.65;;;10721.47;;
71174;SDS011;58876;51.994;4.472;2022-08-01T09:11:29;17936.60;;;11294.22;;
71174;SDS011;58876;51.994;4.472;2022-08-01T09:14:14;18303.60;;;11490.08;;
71174;SDS011;58876;51.994;4.472;2022-08-01T09:17:03;17665.81;;;11205.97;;
71174;SDS011;58876;51.994;4.472;2022-08-01T09:19:43;18154.02;;;11368.34;;
71174;SDS011;58876;51.994;4.472;2022-08-01T09:22:13;19249.75;;;11988.91;;
71174;SDS011;58876;51.994;4.472;2022-08-01T09:24:55;19736.75;;;12145.82;;
71174;SDS011;58876;51.994;4.472;2022-08-01T09:27:25;19601.78;;;12127.48;;
71174;SDS011;58876;51.994;4.472;2022-08-01T09:29:51;20287.02;;;12454.71;;
71174;SDS011;58876;51.994;4.472;2022-08-01T09:32:18;19758.69;;;12171.29;;
71174;SDS011;58876;51.994;4.472;2022-08-01T09:34:44;19494.06;;;12045.42;;
71174;SDS011;58876;51.994;4.472;2022-08-01T09:37:11;19910.67;;;12245.63;;
71174;SDS011;58876;51.994;4.472;2022-08-01T09:39:39;19852.52;;;12228.23;;
71174;SDS011;58876;51.994;4.472;2022-08-01T09:42:27;20755.99;;;12655.51;;
71174;SDS011;58876;51.994;4.472;2022-08-01T09:44:54;19805.08;;;12237.85;;
71174;SDS011;58876;51.994;4.472;2022-08-01T09:47:20;19808.98;;;12188.97;;
71174;SDS011;58876;51.994;4.472;2022-08-01T09:49:54;18258.02;;;11449.20;;
71174;SDS011;58876;51.994;4.472;2022-08-01T09:52:22;16568.55;;;10643.10;;
71174;SDS011;58876;51.994;4.472;2022-08-01T09:57:20;15503.94;;;10144.58;;
71174;SDS011;58876;51.994;4.472;2022-08-01T09:59:57;15057.90;;;9902.75;;
71174;SDS011;58876;51.994;4.472;2022-08-01T10:02:29;14944.98;;;9837.87;;
71174;SDS011;58876;51.994;4.472;2022-08-01T10:04:57;15072.75;;;9923.45;;
71174;SDS011;58876;51.994;4.472;2022-08-01T10:07:23;15261.56;;;9974.95;;
71174;SDS011;58876;51.994;4.472;2022-08-01T10:09:49;15052.86;;;9838.13;;
71174;SDS011;58876;51.994;4.472;2022-08-01T10:12:16;14511.48;;;9586.07;;
71174;SDS011;58876;51.994;4.472;2022-08-01T10:14:45;14372.37;;;9522.52;;
71174;SDS011;58876;51.994;4.472;2022-08-01T10:17:20;14171.56;;;9419.73;;
71174;SDS011;58876;51.994;4.472;2022-08-01T10:19:50;14367.24;;;9501.26;;
71174;SDS011;58876;51.994;4.472;2022-08-01T10:22:19;14907.85;;;9750.66;;
71174;SDS011;58876;51.994;4.472;2022-08-01T10:24:53;14638.08;;;9663.66;;
71174;SDS011;58876;51.994;4.472;2022-08-01T10:27:20;14826.46;;;9746.15;;
71174;SDS011;58876;51.994;4.472;2022-08-01T10:29:55;14709.00;;;9716.86;;
71174;SDS011;58876;51.994;4.472;2022-08-01T10:32:22;15310.41;;;10281.63;;
71174;SDS011;58876;51.994;4.472;2022-08-01T10:34:52;14391.55;;;9908.95;;
71174;SDS011;58876;51.994;4.472;2022-08-01T10:37:19;14673.46;;;9869.75;;
71174;SDS011;58876;51.994;4.472;2022-08-01T10:39:46;15088.90;;;9894.53;;
71174;SDS011;58876;51.994;4.472;2022-08-01T10:42:12;15117.54;;;9926.94;;
71174;SDS011;58876;51.994;4.472;2022-08-01T10:44:39;15666.69;;;10143.01;;
71174;SDS011;58876;51.994;4.472;2022-08-01T10:47:08;16024.28;;;10266.39;;
71174;SDS011;58876;51.994;4.472;2022-08-01T10:52:37;15692.43;;;10185.54;;
71174;SDS011;58876;51.994;4.472;2022-08-01T10:55:03;15156.67;;;9964.12;;
71174;SDS011;58876;51.994;4.472;2022-08-01T10:57:46;15294.45;;;10033.89;;
71174;SDS011;58876;51.994;4.472;2022-08-01T11:00:21;16304.56;;;10441.39;;
71174;SDS011;58876;51.994;4.472;2022-08-01T11:03:00;15199.60;;;9965.91;;
71174;SDS011;58876;51.994;4.472;2022-08-01T11:05:32;14987.56;;;9867.04;;
71174;SDS011;58876;51.994;4.472;2022-08-01T11:08:10;15594.19;;;10199.12;;
71174;SDS011;58876;51.994;4.472;2022-08-01T11:10:45;15966.97;;;10334.34;;
71174;SDS011;58876;51.994;4.472;2022-08-01T11:13:12;16197.96;;;10393.83;;
71174;SDS011;58876;51.994;4.472;2022-08-01T11:15:38;15993.16;;;10354.77;;
71174;SDS011;58876;51.994;4.472;2022-08-01T11:21:01;15798.07;;;10266.41;;
71174;SDS011;58876;51.994;4.472;2022-08-01T11:23:29;15667.12;;;10289.78;;
71174;SDS011;58876;51.994;4.472;2022-08-01T11:28:27;15564.50;;;10058.55;;
71174;SDS011;58876;51.994;4.472;2022-08-01T11:36:26;14551.48;;;9697.40;;
71174;SDS011;58876;51.994;4.472;2022-08-01T11:41:31;15528.81;;;9972.90;;
71174;SDS011;58876;51.994;4.472;2022-08-01T11:44:18;14951.40;;;9821.74;;
71174;SDS011;58876;51.994;4.472;2022-08-01T11:46:54;14535.79;;;9582.05;;
71174;SDS011;58876;51.994;4.472;2022-08-01T11:52:06;14012.70;;;9441.70;;
71174;SDS011;58876;51.994;4.472;2022-08-01T11:54:42;14427.36;;;9520.13;;
71174;SDS011;58876;51.994;4.472;2022-08-01T11:57:11;14413.28;;;9504.45;;
71174;SDS011;58876;51.994;4.472;2022-08-01T11:59:48;14588.23;;;9565.38;;
71174;SDS011;58876;51.994;4.472;2022-08-01T12:04:57;14736.88;;;9707.69;;
71174;SDS011;58876;51.994;4.472;2022-08-01T12:07:25;14365.91;;;9538.82;;
71174;SDS011;58876;51.994;4.472;2022-08-01T12:09:57;14653.67;;;9721.34;;
71174;SDS011;58876;51.994;4.472;2022-08-01T12:12:43;14865.86;;;9754.82;;
71174;SDS011;58876;51.994;4.472;2022-08-01T12:15:14;13979.48;;;9326.78;;
71174;SDS011;58876;51.994;4.472;2022-08-01T12:17:41;14038.30;;;9353.20;;
71174;SDS011;58876;51.994;4.472;2022-08-01T12:20:18;14754.64;;;9675.08;;
71174;SDS011;58876;51.994;4.472;2022-08-01T12:22:45;15706.32;;;10129.95;;
71174;SDS011;58876;51.994;4.472;2022-08-01T12:28:39;17033.98;;;10827.92;;
71174;SDS011;58876;51.994;4.472;2022-08-01T12:31:08;15419.09;;;10048.27;;
71174;SDS011;58876;51.994;4.472;2022-08-01T12:36:27;15040.85;;;9843.14;;
71174;SDS011;58876;51.994;4.472;2022-08-01T12:38:53;14440.94;;;9606.72;;
71174;SDS011;58876;51.994;4.472;2022-08-01T12:41:19;14945.65;;;9912.22;;
71174;SDS011;58876;51.994;4.472;2022-08-01T12:43:50;15857.30;;;10333.58;;
71174;SDS011;58876;51.994;4.472;2022-08-01T12:46:17;17653.06;;;11134.01;;
71174;SDS011;58876;51.994;4.472;2022-08-01T12:48:42;18221.68;;;11795.89;;
71174;SDS011;58876;51.994;4.472;2022-08-01T12:51:09;18032.84;;;11563.57;;
71174;SDS011;58876;51.994;4.472;2022-08-01T12:53:39;18596.84;;;11522.01;;
71174;SDS011;58876;51.994;4.472;2022-08-01T12:56:05;18955.42;;;11750.37;;
71174;SDS011;58876;51.994;4.472;2022-08-01T12:58:31;18180.06;;;11403.89;;
71174;SDS011;58876;51.994;4.472;2022-08-01T13:01:06;17933.48;;;11316.69;;
71174;SDS011;58876;51.994;4.472;2022-08-01T13:03:37;17293.80;;;11034.23;;
71174;SDS011;58876;51.994;4.472;2022-08-01T13:06:13;17227.80;;;10952.45;;
71174;SDS011;58876;51.994;4.472;2022-08-01T13:08:40;17980.21;;;11290.97;;
71174;SDS011;58876;51.994;4.472;2022-08-01T13:11:06;18498.30;;;11900.11;;
71174;SDS011;58876;51.994;4.472;2022-08-01T13:13:42;18645.13;;;11861.01;;
71174;SDS011;58876;51.994;4.472;2022-08-01T13:16:12;17854.66;;;11288.00;;
71174;SDS011;58876;51.994;4.472;2022-08-01T13:18:38;17474.74;;;11119.54;;
71174;SDS011;58876;51.994;4.472;2022-08-01T13:21:13;17876.47;;;11314.09;;
71174;SDS011;58876;51.994;4.472;2022-08-01T13:23:40;18303.57;;;11482.45;;
71174;SDS011;58876;51.994;4.472;2022-08-01T13:26:44;19550.67;;;12002.26;;
71174;SDS011;58876;51.994;4.472;2022-08-01T13:29:14;16785.44;;;10627.07;;
71174;SDS011;58876;51.994;4.472;2022-08-01T13:31:45;16507.26;;;10676.47;;
71174;SDS011;58876;51.994;4.472;2022-08-01T13:34:12;16303.63;;;10853.27;;
71174;SDS011;58876;51.994;4.472;2022-08-01T13:36:38;15585.14;;;10050.00;;
71174;SDS011;58876;51.994;4.472;2022-08-01T13:39:04;14957.50;;;9916.89;;
71174;SDS011;58876;51.994;4.472;2022-08-01T13:41:50;15339.73;;;9971.56;;
71174;SDS011;58876;51.994;4.472;2022-08-01T13:44:16;14844.35;;;9733.17;;
71174;SDS011;58876;51.994;4.472;2022-08-01T13:46:42;13346.10;;;9048.05;;
71174;SDS011;58876;51.994;4.472;2022-08-01T13:49:08;12796.25;;;8788.82;;
71174;SDS011;58876;51.994;4.472;2022-08-01T13:51:35;13403.47;;;9050.58;;
71174;SDS011;58876;51.994;4.472;2022-08-01T13:54:03;12764.67;;;8835.82;;
71174;SDS011;58876;51.994;4.472;2022-08-01T13:56:30;13219.77;;;8984.32;;
71174;SDS011;58876;51.994;4.472;2022-08-01T13:58:56;13103.35;;;8990.30;;
71174;SDS011;58876;51.994;4.472;2022-08-01T14:01:22;13761.67;;;9336.08;;
71174;SDS011;58876;51.994;4.472;2022-08-01T14:07:28;14286.42;;;9555.22;;
71174;SDS011;58876;51.994;4.472;2022-08-01T14:12:54;13330.94;;;9083.94;;
71174;SDS011;58876;51.994;4.472;2022-08-01T14:15:23;12960.28;;;8792.01;;
71174;SDS011;58876;51.994;4.472;2022-08-01T14:17:51;13342.51;;;9059.05;;
71174;SDS011;58876;51.994;4.472;2022-08-01T14:20:17;12495.90;;;8596.92;;
71174;SDS011;58876;51.994;4.472;2022-08-01T14:22:46;13064.55;;;8873.54;;
71174;SDS011;58876;51.994;4.472;2022-08-01T14:25:12;13557.26;;;9066.30;;
71174;SDS011;58876;51.994;4.472;2022-08-01T14:27:38;14118.16;;;9309.21;;
71174;SDS011;58876;51.994;4.472;2022-08-01T14:30:05;15165.29;;;9793.64;;
71174;SDS011;58876;51.994;4.472;2022-08-01T14:32:31;15278.40;;;9840.33;;
71174;SDS011;58876;51.994;4.472;2022-08-01T14:34:58;15135.92;;;9746.69;;
71174;SDS011;58876;51.994;4.472;2022-08-01T14:37:25;16044.36;;;10158.20;;